createdAt,value
2019-04-11T00:00:52.070Z,15.00
2019-04-11T00:03:22.235Z,15.88
2019-04-11T00:05:52.897Z,15.78
2019-04-11T00:08:23.099Z,15.80
2019-04-11T00:10:53.548Z,15.38
2019-04-11T00:13:26.741Z,15.25
2019-04-11T00:15:55.447Z,16.32
2019-04-11T00:18:25.472Z,15.60
2019-04-11T00:20:56.143Z,15.30
2019-04-11T00:23:26.444Z,15.90
2019-04-11T00:25:56.470Z,14.80
2019-04-11T00:28:26.498Z,15.28
2019-04-11T00:30:58.776Z,15.53
2019-04-11T00:33:29.891Z,15.98
2019-04-11T00:36:00.116Z,14.65
2019-04-11T00:38:30.324Z,15.53
2019-04-11T00:41:00.324Z,14.47
2019-04-11T00:43:37.112Z,15.48
2019-04-11T00:46:02.927Z,15.08
2019-04-11T00:48:33.504Z,15.75
2019-04-11T00:51:03.606Z,15.40
2019-04-11T00:53:34.064Z,15.03
2019-04-11T00:56:04.230Z,15.85
2019-04-11T00:58:34.267Z,14.63
2019-04-11T01:01:04.678Z,15.25
2019-04-11T01:03:35.918Z,15.23
2019-04-11T01:06:06.130Z,15.47
2019-04-11T01:08:36.158Z,14.70
2019-04-11T01:11:07.744Z,14.55
2019-04-11T01:13:44.368Z,14.58
2019-04-11T01:16:30.787Z,14.90
2019-04-11T01:19:00.790Z,14.13
2019-04-11T01:21:30.861Z,14.95
2019-04-11T01:24:01.708Z,14.95
2019-04-11T01:26:32.958Z,15.15
2019-04-11T01:29:03.488Z,15.00
2019-04-11T01:31:35.883Z,14.50
2019-04-11T01:34:06.481Z,14.23
2019-04-11T01:36:37.427Z,14.40
2019-04-11T01:39:34.961Z,15.90
2019-04-11T01:42:05.203Z,14.60
2019-04-11T01:44:35.297Z,14.35
2019-04-11T01:47:08.676Z,14.03
2019-04-11T01:49:38.701Z,13.93
2019-04-11T01:52:09.873Z,14.35
2019-04-11T01:54:40.046Z,14.18
2019-04-11T01:57:10.119Z,14.60
2019-04-11T01:59:40.248Z,14.73
2019-04-11T02:02:32.680Z,14.15
2019-04-11T02:05:22.967Z,13.78
2019-04-11T02:07:53.256Z,14.47
2019-04-11T02:10:24.441Z,14.20
2019-04-11T02:12:55.286Z,14.95
2019-04-11T02:15:26.595Z,12.68
2019-04-11T02:17:57.283Z,13.80
2019-04-11T02:20:27.423Z,13.83
2019-04-11T02:23:13.036Z,13.50
2019-04-11T02:26:18.815Z,13.55
2019-04-11T02:28:49.064Z,13.48
2019-04-11T02:31:20.414Z,12.90
2019-04-11T02:33:51.353Z,14.33
2019-04-11T02:36:22.899Z,13.30
2019-04-11T02:38:56.523Z,13.00
2019-04-11T02:41:25.412Z,13.93
2019-04-11T02:43:57.532Z,13.35
2019-04-11T02:46:35.678Z,12.82
2019-04-11T02:49:01.085Z,13.50
2019-04-11T02:51:31.266Z,14.05
2019-04-11T02:54:02.219Z,13.03
2019-04-11T02:56:33.574Z,12.75
2019-04-11T02:59:05.474Z,13.58
2019-04-11T03:01:36.882Z,13.53
2019-04-11T03:04:07.560Z,13.30
2019-04-11T03:06:39.256Z,13.13
2019-04-11T03:09:10.907Z,12.70
2019-04-11T03:11:42.818Z,13.35
2019-04-11T03:14:14.152Z,12.98
2019-04-11T03:16:56.762Z,12.45
2019-04-11T03:19:36.385Z,14.10
2019-04-11T03:21:50.007Z,12.70
2019-04-11T03:24:21.778Z,13.40
2019-04-11T03:26:54.334Z,12.70
2019-04-11T03:29:26.532Z,12.33
2019-04-11T03:32:36.891Z,12.23
2019-04-11T03:37:23.675Z,12.03
2019-04-11T03:39:57.463Z,13.08
2019-04-11T03:42:20.489Z,12.18
2019-04-11T03:44:42.355Z,13.05
2019-04-11T03:47:23.720Z,12.63
2019-04-11T03:49:49.185Z,12.50
2019-04-11T03:52:14.980Z,12.55
2019-04-11T03:54:45.657Z,12.68
2019-04-11T03:57:17.466Z,12.30
2019-04-11T03:59:47.963Z,12.45
2019-04-11T04:02:18.201Z,13.03
2019-04-11T04:04:49.459Z,12.37
2019-04-11T04:07:21.412Z,11.78
2019-04-11T04:09:53.694Z,12.45
2019-04-11T04:12:23.835Z,12.75
2019-04-11T04:15:29.595Z,12.18
2019-04-11T04:17:55.191Z,10.78
2019-04-11T04:21:00.320Z,11.57
2019-04-11T04:23:35.878Z,11.38
2019-04-11T04:26:09.561Z,11.05
2019-04-11T04:28:40.697Z,11.28
2019-04-11T04:31:11.534Z,11.93
2019-04-11T04:33:42.956Z,11.15
2019-04-11T04:36:15.372Z,11.03
2019-04-11T04:38:46.490Z,12.35
2019-04-11T04:41:30.212Z,11.35
2019-04-11T04:43:52.721Z,12.10
2019-04-11T04:46:40.017Z,11.57
2019-04-11T04:48:55.955Z,11.88
2019-04-11T04:51:28.686Z,11.78
2019-04-11T04:54:00.118Z,11.60
2019-04-11T04:56:32.225Z,11.43
2019-04-11T04:59:02.776Z,11.50
2019-04-11T05:01:34.922Z,12.05
2019-04-11T05:04:06.721Z,11.20
2019-04-11T05:06:38.631Z,11.12
2019-04-11T05:09:08.782Z,10.45
2019-04-11T05:11:38.885Z,10.18
2019-04-11T05:14:10.384Z,10.70
2019-04-11T05:16:41.689Z,10.88
2019-04-11T05:19:12.855Z,11.38
2019-04-11T05:21:43.603Z,10.68
2019-04-11T05:24:14.569Z,11.38
2019-04-11T05:26:45.949Z,10.70
2019-04-11T05:29:17.171Z,10.50
2019-04-11T05:31:47.523Z,10.20
2019-04-11T05:34:18.295Z,9.88
2019-04-11T05:36:48.499Z,10.72
2019-04-11T05:39:18.992Z,10.30
2019-04-11T05:41:51.294Z,10.32
2019-04-11T05:44:21.519Z,10.50
2019-04-11T05:46:56.279Z,9.65
2019-04-11T05:49:41.664Z,9.35
2019-04-11T05:52:10.291Z,10.05
2019-04-11T05:54:47.977Z,9.98
2019-04-11T05:57:22.622Z,9.63
2019-04-11T05:59:53.099Z,10.28
2019-04-11T06:02:41.600Z,10.00
2019-04-11T06:05:33.138Z,10.23
2019-04-11T06:08:06.175Z,9.20
2019-04-11T06:11:05.890Z,9.70
2019-04-11T06:13:56.513Z,10.08
2019-04-11T06:16:37.031Z,10.50
2019-04-11T06:19:30.622Z,10.58
2019-04-11T06:22:08.797Z,9.73
2019-04-11T06:25:05.968Z,9.40
2019-04-11T06:27:55.700Z,9.20
2019-04-11T06:30:46.846Z,9.38
2019-04-11T06:33:20.589Z,10.03
2019-04-11T06:36:11.820Z,9.58
2019-04-11T06:39:05.048Z,9.40
2019-04-11T06:41:53.284Z,9.25
2019-04-11T06:44:58.494Z,9.58
2019-04-11T06:48:05.831Z,9.10
2019-04-11T06:50:43.998Z,8.93
2019-04-11T06:53:18.903Z,9.48
2019-04-11T06:56:18.961Z,9.60
2019-04-11T06:58:56.756Z,9.90
2019-04-11T07:01:29.949Z,9.73
2019-04-11T07:04:23.131Z,9.83
2019-04-11T07:06:55.831Z,9.85
2019-04-11T07:09:51.202Z,10.30
2019-04-11T07:12:47.133Z,10.35
2019-04-11T07:15:20.904Z,9.25
2019-04-11T07:18:09.862Z,10.43
2019-04-11T07:21:00.664Z,10.78
2019-04-11T07:23:49.219Z,9.43
2019-04-11T07:26:41.624Z,10.55
2019-04-11T07:29:42.903Z,9.48
2019-04-11T07:32:22.119Z,9.33
2019-04-11T07:35:10.991Z,9.08
2019-04-11T07:37:42.523Z,9.45
2019-04-11T07:40:33.179Z,9.75
2019-04-11T07:43:25.295Z,10.00
2019-04-11T07:46:25.129Z,9.45
2019-04-11T07:49:03.777Z,7.78
2019-04-11T07:51:40.791Z,7.08
2019-04-11T07:54:18.678Z,6.35
2019-04-11T07:57:08.396Z,6.17
2019-04-11T08:00:00.355Z,6.87
2019-04-11T08:02:48.440Z,7.22
2019-04-11T08:05:38.774Z,6.75
2019-04-11T08:08:27.268Z,7.00
2019-04-11T08:11:06.726Z,6.97
2019-04-11T08:13:59.975Z,7.25
2019-04-11T08:16:49.252Z,7.53
2019-04-11T08:19:53.538Z,7.47
2019-04-11T08:22:51.722Z,6.80
2019-04-11T08:25:41.907Z,7.85
2019-04-11T08:28:14.091Z,7.67
2019-04-11T08:31:01.876Z,7.83
2019-04-11T08:33:33.114Z,6.95
2019-04-11T08:36:29.483Z,7.78
2019-04-11T08:39:01.109Z,7.55
2019-04-11T08:41:47.538Z,7.75
2019-04-11T08:44:25.961Z,6.75
2019-04-11T08:47:04.442Z,6.30
2019-04-11T08:49:41.739Z,6.60
2019-04-11T08:52:27.958Z,6.33
2019-04-11T08:55:02.158Z,6.80
2019-04-11T08:57:36.015Z,6.72
2019-04-11T09:00:38.547Z,6.65
2019-04-11T09:03:35.025Z,7.55
2019-04-11T09:06:10.962Z,7.40
2019-04-11T09:09:00.264Z,6.83
2019-04-11T09:11:48.980Z,6.60
2019-04-11T09:14:38.048Z,5.80
2019-04-11T09:17:21.474Z,6.33
2019-04-11T09:20:13.674Z,6.90
2019-04-11T09:22:51.204Z,6.85
2019-04-11T09:25:39.130Z,7.28
2019-04-11T09:28:15.404Z,7.87
2019-04-11T09:31:04.221Z,7.50
2019-04-11T09:33:57.536Z,6.95
2019-04-11T09:37:05.302Z,7.10
2019-04-11T09:40:12.733Z,7.35
2019-04-11T09:42:48.096Z,7.47
2019-04-11T09:45:43.912Z,6.95
2019-04-11T09:48:39.895Z,8.03
2019-04-11T09:51:21.334Z,7.25
2019-04-11T09:53:59.674Z,7.20
2019-04-11T09:56:56.062Z,7.17
2019-04-11T09:59:32.036Z,7.08
2019-04-11T10:02:20.908Z,7.20
2019-04-11T10:04:52.253Z,8.30
2019-04-11T10:07:37.702Z,7.60
2019-04-11T10:10:46.604Z,7.22
2019-04-11T10:13:35.584Z,7.50
2019-04-11T10:16:44.247Z,7.78
2019-04-11T10:19:29.589Z,6.97
2019-04-11T10:22:04.935Z,7.25
2019-04-11T10:25:03.513Z,6.95
2019-04-11T10:27:58.431Z,6.80
2019-04-11T10:30:48.254Z,6.33
2019-04-11T10:33:30.991Z,7.75
2019-04-11T10:36:13.297Z,6.60
2019-04-11T10:38:44.636Z,6.45
2019-04-11T10:41:28.568Z,6.40
2019-04-11T10:43:59.410Z,6.47
2019-04-11T10:46:41.677Z,6.28
2019-04-11T10:49:32.400Z,6.10
2019-04-11T10:52:06.579Z,5.47
2019-04-11T10:54:36.787Z,6.25
2019-04-11T10:57:44.607Z,5.45
2019-04-11T11:00:31.935Z,5.25
2019-04-11T11:03:27.898Z,4.95
2019-04-11T11:06:00.088Z,5.55
2019-04-11T11:08:52.072Z,5.17
2019-04-11T11:11:26.170Z,5.30
2019-04-11T11:14:15.322Z,5.00
2019-04-11T11:16:52.730Z,5.25
2019-04-11T11:19:54.865Z,5.53
2019-04-11T11:22:33.739Z,5.08
2019-04-11T11:25:26.801Z,5.20
2019-04-11T11:27:57.941Z,5.55
2019-04-11T11:30:56.385Z,5.55
2019-04-11T11:33:29.985Z,7.05
2019-04-11T11:36:19.296Z,6.00
2019-04-11T11:39:07.349Z,6.05
2019-04-11T11:41:56.589Z,6.42
2019-04-11T11:44:30.870Z,5.78
2019-04-11T11:47:19.572Z,6.72
2019-04-11T11:49:58.667Z,6.90
2019-04-11T11:52:45.850Z,6.20
2019-04-11T11:55:19.845Z,7.15
2019-04-11T11:57:57.904Z,6.67
2019-04-11T12:00:29.253Z,7.42
2019-04-11T12:03:28.389Z,7.25
2019-04-11T12:06:00.879Z,7.80
2019-04-11T12:08:51.347Z,7.78
2019-04-11T12:11:22.060Z,8.18
2019-04-11T12:14:09.921Z,7.90
2019-04-11T12:16:57.835Z,7.40
2019-04-11T12:19:28.964Z,7.85
2019-04-11T12:22:00.448Z,8.08
2019-04-11T12:24:44.759Z,8.50
2019-04-11T12:27:33.040Z,7.85
2019-04-11T12:30:32.368Z,8.28
2019-04-11T12:33:15.848Z,8.33
2019-04-11T12:36:06.463Z,7.35
2019-04-11T12:38:55.608Z,7.80
2019-04-11T12:41:32.571Z,7.05
2019-04-11T12:44:20.838Z,7.35
2019-04-11T12:47:08.513Z,7.00
2019-04-11T12:49:56.362Z,6.85
2019-04-11T12:52:41.584Z,6.83
2019-04-11T12:55:15.933Z,8.10
2019-04-11T12:58:04.031Z,12.23
2019-04-11T13:01:05.630Z,12.63
2019-04-11T13:03:57.909Z,11.38
2019-04-11T13:07:02.339Z,12.73
2019-04-11T13:10:00.484Z,7.47
2019-04-11T13:12:38.127Z,10.68
2019-04-11T13:15:23.723Z,7.65
2019-04-11T13:18:11.094Z,10.18
2019-04-11T13:20:48.033Z,7.50
2019-04-11T13:23:34.920Z,9.23
2019-04-11T13:26:36.267Z,7.28
2019-04-11T13:29:16.210Z,7.90
2019-04-11T13:32:05.314Z,7.08
2019-04-11T13:34:36.131Z,7.75
2019-04-11T13:37:34.125Z,7.30
2019-04-11T13:40:19.734Z,8.30
2019-04-11T13:43:07.610Z,7.35
2019-04-11T13:45:46.926Z,7.67
2019-04-11T13:48:35.035Z,8.03
2019-04-11T13:51:09.255Z,7.33
2019-04-11T13:54:04.563Z,6.90
2019-04-11T13:56:48.220Z,7.30
2019-04-11T13:59:46.142Z,7.47
2019-04-11T14:02:23.455Z,7.12
2019-04-11T14:04:54.584Z,8.40
2019-04-11T14:07:26.274Z,7.65
2019-04-11T14:09:56.641Z,8.03
2019-04-11T14:12:26.982Z,7.67
2019-04-11T14:15:09.167Z,8.00
2019-04-11T14:18:01.518Z,8.05
2019-04-11T14:20:50.636Z,9.03
2019-04-11T14:23:37.783Z,7.85
2019-04-11T14:26:29.339Z,7.97
2019-04-11T14:29:09.807Z,8.18
2019-04-11T14:31:53.892Z,8.43
2019-04-11T14:34:37.779Z,8.93
2019-04-11T14:37:25.756Z,9.88
2019-04-11T14:40:00.327Z,7.50
2019-04-11T14:43:04.858Z,8.23
2019-04-11T14:45:55.783Z,9.05
2019-04-11T14:48:57.237Z,8.95
2019-04-11T14:51:58.957Z,7.65
2019-04-11T14:54:41.116Z,7.87
2019-04-11T14:57:30.247Z,11.45
2019-04-11T15:00:06.833Z,7.70
2019-04-11T15:02:57.547Z,9.15
2019-04-11T15:05:36.052Z,8.15
2019-04-11T15:08:07.349Z,8.68
2019-04-11T15:10:56.480Z,9.50
2019-04-11T15:13:28.404Z,7.40
2019-04-11T15:16:26.840Z,8.53
2019-04-11T15:19:00.095Z,8.30
2019-04-11T15:21:47.988Z,10.13
2019-04-11T15:24:19.519Z,8.53
2019-04-11T15:26:55.642Z,8.48
2019-04-11T15:29:32.960Z,10.65
2019-04-11T15:32:28.230Z,9.88
2019-04-11T15:35:10.794Z,11.73
2019-04-11T15:37:59.875Z,8.50
2019-04-11T15:40:36.491Z,10.05
2019-04-11T15:43:43.292Z,10.53
2019-04-11T15:46:19.226Z,8.23
2019-04-11T15:49:19.990Z,8.40
2019-04-11T15:51:53.049Z,7.08
2019-04-11T15:54:42.254Z,7.70
2019-04-11T15:57:43.656Z,7.72
2019-04-11T16:00:33.591Z,7.37
2019-04-11T16:03:19.015Z,7.72
2019-04-11T16:06:06.776Z,7.47
2019-04-11T16:08:43.440Z,7.55
2019-04-11T16:11:33.877Z,8.58
2019-04-11T16:14:25.151Z,8.45
2019-04-11T16:17:14.639Z,8.95
2019-04-11T16:19:52.900Z,8.85
2019-04-11T16:22:43.253Z,8.55
2019-04-11T16:25:15.123Z,8.90
2019-04-11T16:28:08.048Z,8.25
2019-04-11T16:30:40.809Z,7.95
2019-04-11T16:33:17.461Z,8.25
2019-04-11T16:35:57.247Z,8.80
2019-04-11T16:38:30.776Z,8.78
2019-04-11T16:41:23.768Z,7.95
2019-04-11T16:43:55.590Z,7.70
2019-04-11T16:47:03.164Z,8.10
2019-04-11T16:49:33.435Z,8.10
2019-04-11T16:52:07.545Z,8.05
2019-04-11T16:54:35.350Z,7.90
2019-04-11T16:57:05.549Z,7.40
2019-04-11T16:59:35.742Z,7.92
2019-04-11T17:02:05.928Z,7.45
2019-04-11T17:04:36.511Z,7.75
2019-04-11T17:07:21.274Z,7.30
2019-04-11T17:09:51.912Z,7.15
2019-04-11T17:12:22.178Z,7.37
2019-04-11T17:14:52.333Z,7.20
2019-04-11T17:17:22.455Z,7.12
2019-04-11T17:19:52.598Z,6.83
2019-04-11T17:22:22.745Z,6.90
2019-04-11T17:24:52.941Z,6.95
2019-04-11T17:27:23.305Z,6.83
2019-04-11T17:29:55.396Z,8.48
2019-04-11T17:32:26.619Z,6.70
2019-04-11T17:34:56.849Z,7.35
2019-04-11T17:37:26.953Z,6.78
2019-04-11T17:39:57.018Z,6.33
2019-04-11T17:42:27.138Z,6.53
2019-04-11T17:44:58.314Z,6.40
2019-04-11T17:47:28.462Z,5.78
2019-04-11T17:49:59.673Z,6.87
2019-04-11T17:52:29.857Z,6.40
2019-04-11T17:55:00.264Z,6.30
2019-04-11T17:57:30.569Z,6.55
2019-04-11T18:00:00.696Z,6.83
2019-04-11T18:02:30.859Z,6.40
2019-04-11T18:05:00.967Z,6.47
2019-04-11T18:07:31.286Z,24.00
2019-04-11T18:10:01.392Z,6.87
2019-04-11T18:12:31.550Z,7.90
2019-04-11T18:15:02.378Z,6.50
2019-04-11T18:17:34.963Z,6.92
2019-04-11T18:20:06.886Z,6.92
2019-04-11T18:22:38.755Z,7.53
2019-04-11T18:25:09.157Z,6.05
2019-04-11T18:27:39.584Z,6.22
2019-04-11T18:30:12.187Z,6.28
2019-04-11T18:32:42.476Z,6.42
2019-04-11T18:35:12.828Z,7.30
2019-04-11T18:37:43.631Z,7.87
2019-04-11T18:40:14.915Z,7.65
2019-04-11T18:42:45.157Z,7.17
2019-04-11T18:45:17.539Z,7.53
2019-04-11T18:47:47.743Z,7.42
2019-04-11T18:50:18.257Z,6.45
2019-04-11T18:52:48.434Z,7.10
2019-04-11T18:55:18.504Z,6.70
2019-04-11T18:57:48.632Z,6.22
2019-04-11T19:00:20.065Z,6.50
2019-04-11T19:02:50.730Z,6.00
2019-04-11T19:05:28.679Z,6.33
2019-04-11T19:07:53.806Z,6.33
2019-04-11T19:10:23.980Z,6.70
2019-04-11T19:12:54.090Z,6.60
2019-04-11T19:15:24.223Z,6.28
2019-04-11T19:18:05.551Z,5.92
2019-04-11T19:20:26.309Z,5.60
2019-04-11T19:22:56.448Z,5.83
2019-04-11T19:25:26.653Z,6.05
2019-04-11T19:27:57.394Z,6.33
2019-04-11T19:30:27.773Z,5.72
2019-04-11T19:32:57.935Z,5.85
2019-04-11T19:35:28.706Z,5.97
2019-04-11T19:37:59.255Z,6.75
2019-04-11T19:40:30.559Z,5.72
2019-04-11T19:43:00.917Z,5.95
2019-04-11T19:45:31.223Z,6.37
2019-04-11T19:48:01.463Z,5.70
2019-04-11T19:50:31.779Z,5.33
2019-04-11T19:53:02.908Z,5.62
2019-04-11T19:55:52.996Z,5.80
2019-04-11T19:58:26.686Z,5.95
2019-04-11T20:00:56.960Z,6.03
2019-04-11T20:03:27.163Z,5.95
2019-04-11T20:05:57.372Z,5.60
2019-04-11T20:08:28.626Z,5.65
2019-04-11T20:11:01.076Z,5.37
2019-04-11T20:13:32.210Z,5.72
2019-04-11T20:16:02.894Z,6.37
2019-04-11T20:18:33.199Z,6.33
2019-04-11T20:21:07.313Z,5.80
2019-04-11T20:23:41.462Z,5.42
2019-04-11T20:26:09.745Z,5.62
2019-04-11T20:28:39.974Z,5.90
2019-04-11T20:31:10.151Z,5.67
2019-04-11T20:33:40.364Z,5.33
2019-04-11T20:36:11.164Z,5.30
2019-04-11T20:38:41.744Z,5.17
2019-04-11T20:41:11.824Z,5.97
2019-04-11T20:43:43.321Z,4.97
2019-04-11T20:46:13.462Z,5.62
2019-04-11T20:48:43.525Z,5.90
2019-04-11T20:51:13.606Z,5.28
2019-04-11T20:53:43.721Z,5.33
2019-04-11T20:56:23.616Z,5.42
2019-04-11T20:58:45.651Z,5.70
2019-04-11T21:01:17.590Z,5.20
2019-04-11T21:03:47.661Z,5.12
2019-04-11T21:06:17.758Z,5.53
2019-04-11T21:08:48.821Z,5.87
2019-04-11T21:11:19.014Z,5.78
2019-04-11T21:13:50.866Z,5.35
2019-04-11T21:16:21.012Z,6.05
2019-04-11T21:18:51.071Z,5.17
2019-04-11T21:21:22.851Z,5.08
2019-04-11T21:23:53.027Z,5.70
2019-04-11T21:26:23.116Z,5.47
2019-04-11T21:28:58.765Z,6.08
2019-04-11T21:31:30.867Z,5.50
2019-04-11T21:34:02.236Z,5.53
2019-04-11T21:36:32.216Z,5.25
2019-04-11T21:39:03.927Z,5.00
2019-04-11T21:41:36.797Z,6.03
2019-04-11T21:44:07.055Z,5.17
2019-04-11T21:46:38.149Z,5.83
2019-04-11T21:49:09.081Z,5.78
2019-04-11T21:51:42.244Z,6.47
2019-04-11T21:54:14.633Z,5.15
2019-04-11T21:56:42.991Z,7.37
2019-04-11T21:59:13.105Z,6.72
2019-04-11T22:01:44.291Z,5.60
2019-04-11T22:04:14.629Z,5.83
2019-04-11T22:06:44.793Z,5.80
2019-04-11T22:09:16.403Z,5.67
2019-04-11T22:11:46.910Z,5.83
2019-04-11T22:14:16.954Z,6.15
2019-04-11T22:16:47.047Z,6.67
2019-04-11T22:19:17.178Z,6.65
2019-04-11T22:21:47.225Z,6.37
2019-04-11T22:24:17.309Z,6.22
2019-04-11T22:26:50.305Z,6.70
2019-04-11T22:29:19.262Z,6.55
2019-04-11T22:31:49.449Z,6.55
2019-04-11T22:34:30.936Z,5.83
2019-04-11T22:37:01.187Z,5.83
2019-04-11T22:39:31.469Z,7.03
2019-04-11T22:42:02.119Z,6.25
2019-04-11T22:44:32.314Z,6.12
2019-04-11T22:47:02.470Z,5.80
2019-04-11T22:49:32.607Z,6.17
2019-04-11T22:52:03.681Z,6.03
2019-04-11T22:54:33.713Z,6.40
2019-04-11T22:57:03.695Z,5.87
2019-04-11T22:59:35.180Z,5.80
2019-04-11T23:02:23.972Z,5.70
2019-04-11T23:04:53.996Z,5.37
2019-04-11T23:07:23.969Z,6.28
2019-04-11T23:09:53.960Z,5.78
2019-04-11T23:12:23.941Z,5.92
2019-04-11T23:14:53.978Z,5.35
2019-04-11T23:17:24.062Z,5.60
2019-04-11T23:19:54.091Z,5.83
2019-04-11T23:22:24.076Z,5.47
2019-04-11T23:24:54.099Z,5.97
2019-04-11T23:27:24.091Z,5.97
2019-04-11T23:29:54.108Z,5.40
2019-04-11T23:32:24.094Z,5.65
2019-04-11T23:34:54.158Z,5.78
2019-04-11T23:37:24.204Z,5.58
2019-04-11T23:39:54.537Z,5.87
2019-04-11T23:42:24.601Z,6.08
2019-04-11T23:44:54.616Z,6.25
2019-04-11T23:47:24.613Z,5.80
2019-04-11T23:49:55.886Z,6.05
2019-04-11T23:52:26.807Z,5.62
2019-04-11T23:54:58.217Z,6.20
2019-04-11T23:57:31.309Z,5.72
